ADDS TAF Board (Experimental) INFO Settings
IDs: Format: Expanded Condensed

KLGA - New York/La Guardia, NY, US

Issued at 1334 UTC 28 Jun 2016
Updated at: 1459 UTC 28 Jun 2016
Time1251Z 28/15Z 28/16Z 28/17Z 28/18Z 28/19Z 28/20Z 28/21Z 28/22Z 28/23Z 29/00Z 29/01Z 29/02Z 29/03Z
Type OBS PRVL
  [TEMP]  
PRVL PRVL PRVL PRVL PRVL PRVL PRVL PRVL
  [TEMP]  
PRVL
  [TEMP]  
PRVL
  [TEMP]  
PRVL
  [TEMP]  
PRVL
VIS 10 >6 >6 >6 >6 >6 >6 >6 >6 >6
  [3]  
>6
  [3]  
>6
  [3]  
>6
  [3]  
1
CIG 14 11
  [8]  
11 11 11 11 11 11 11 10
  [25]  
10
  [25]  
10
  [25]  
10
  [25]  
5
Cover OVC OVC
  [BKN]  
OVC OVC OVC OVC OVC OVC OVC OVC
  [BKN]  
OVC
  [BKN]  
OVC
  [BKN]  
OVC
  [BKN]  
OVC
FltCat MVFR MVFR
  [IFR]  
MVFR MVFR MVFR MVFR MVFR MVFR MVFR MVFR
  [MVFR]  
MVFR
  [MVFR]  
MVFR
  [MVFR]  
MVFR
  [MVFR]  
IFR
WX -- --
  [--]  
-- -- -- -- -- -- -- --
  [TSRA]  
--
  [TSRA]  
--
  [TSRA]  
--
  [TSRA]  
RA BR
WDir 160 160
[160]
160 160 160 160 160 160 160 140
[140]
140
[140]
140
[140]
140
[140]
160
WSpd 9 9
  [9]  
9 9 9 9 9 9 9 10
  [10]  
10
  [10]  
10
  [10]  
10
  [10]  
8
WGst -- --
  [--]  
-- -- -- -- -- -- -- --
  [--]  
--
  [--]  
--
  [--]  
--
  [--]  
--
R04/22
XWnd -7 -7 -7 -7 -7 -7 -7 -7 -7 -10 -10 -10 -10 -6
XGst -- 0 -- -- -- -- -- -- -- 0 0 0 0 --
HWnd -6 -6 -6 -6 -6 -6 -6 -6 -6 -3 -3 -3 -3 -5
HGst -- 0 -- -- -- -- -- -- -- 0 0 0 0 --
R13/31
XWnd -6 -6 -6 -6 -6 -6 -6 -6 -6 -3 -3 -3 -3 -5
XGst -- 0 -- -- -- -- -- -- -- 0 0 0 0 --
HWnd 7 7 7 7 7 7 7 7 7 10 10 10 10 6
HGst -- 0 -- -- -- -- -- -- -- 0 0 0 0 --

NOTE: TEMPO conditions in [brackets]. Keep in mind TEMPO conditions might be better (lower impact) than prevailing conditions.

Raw TAF
KLGA 281334Z 2814/2912 16009KT P6SM OVC011
  TEMPO 2814/2816 BKN008
  FM282300 14010KT P6SM SCT005 OVC010
  TEMPO 2823/2903 3SM TSRA SCT010CB BKN025
  FM290300 16008KT 1SM RA BR OVC005
  FM291000 VRB05KT 3SM BR SCT005 OVC010


Raw METAR
KLGA 281251Z 16009KT 10SM BKN014 OVC022 22/18 A2998 RMK AO2 SLP150 T02220178 $
KLGA 281151Z 17011KT 10SM FEW009 SCT014 OVC028 21/18 A2997 RMK AO2 SLP149 60000 70054 T02110183 10222 20211 51005 $
KLGA 281144Z 17012KT 10SM SCT009 BKN014 OVC030 21/18 A2997 RMK AO2 T02110183 $

METAR Board
Radar Display
Forecast Discussion

TAF Board Legend

Potential Impact
Threat None Slight Moderate High
Visibility (sm) ≥5.1 5.1>X≥3 3>X≥1 <1
Ceiling (100 ft) ≥30.1 30.1>X≥10 10>X≥5 <5
Wind Speed (kt) <10 10≤X<20 20≤X<30 ≥30
Wind Gust (kt) <15 15≤X<25 25≤X<35 ≥35
Weather No Wx Reported VCTS,-TS,-FZRA,SN TS,FZRA +TS,+FZRA,+SN